sensor_id;sensor_type;location;lat;lon;timestamp;P1;durP1;ratioP1;P2;durP2;ratioP2
68247;SDS011;55064;49.636;12.164;2022-11-24T00:01:09;41.40;;;11.70;;
68247;SDS011;55064;49.636;12.164;2022-11-24T00:03:46;40.13;;;11.70;;
68247;SDS011;55064;49.636;12.164;2022-11-24T00:06:17;37.83;;;12.30;;
68247;SDS011;55064;49.636;12.164;2022-11-24T00:08:43;38.33;;;11.75;;
68247;SDS011;55064;49.636;12.164;2022-11-24T00:11:11;38.70;;;13.03;;
68247;SDS011;55064;49.636;12.164;2022-11-24T00:13:42;33.38;;;11.30;;
68247;SDS011;55064;49.636;12.164;2022-11-24T00:18:37;37.50;;;11.63;;
68247;SDS011;55064;49.636;12.164;2022-11-24T00:21:04;34.15;;;11.90;;
68247;SDS011;55064;49.636;12.164;2022-11-24T00:23:30;34.40;;;11.17;;
68247;SDS011;55064;49.636;12.164;2022-11-24T00:26:01;35.10;;;12.20;;
68247;SDS011;55064;49.636;12.164;2022-11-24T00:28:35;36.03;;;12.03;;
68247;SDS011;55064;49.636;12.164;2022-11-24T00:31:01;30.80;;;10.40;;
68247;SDS011;55064;49.636;12.164;2022-11-24T00:33:27;36.88;;;11.90;;
68247;SDS011;55064;49.636;12.164;2022-11-24T00:35:57;32.40;;;11.00;;
68247;SDS011;55064;49.636;12.164;2022-11-24T00:38:24;33.92;;;11.10;;
68247;SDS011;55064;49.636;12.164;2022-11-24T00:40:50;32.35;;;10.48;;
68247;SDS011;55064;49.636;12.164;2022-11-24T00:43:16;40.47;;;11.52;;
68247;SDS011;55064;49.636;12.164;2022-11-24T00:45:42;32.53;;;11.20;;
68247;SDS011;55064;49.636;12.164;2022-11-24T00:48:08;35.20;;;11.90;;
68247;SDS011;55064;49.636;12.164;2022-11-24T00:50:35;37.53;;;12.45;;
68247;SDS011;55064;49.636;12.164;2022-11-24T00:53:01;39.03;;;13.10;;
68247;SDS011;55064;49.636;12.164;2022-11-24T00:55:28;35.40;;;11.97;;
68247;SDS011;55064;49.636;12.164;2022-11-24T00:57:54;36.08;;;11.20;;
68247;SDS011;55064;49.636;12.164;2022-11-24T01:00:19;43.23;;;12.37;;
68247;SDS011;55064;49.636;12.164;2022-11-24T01:02:45;34.10;;;11.85;;
68247;SDS011;55064;49.636;12.164;2022-11-24T01:05:13;38.75;;;12.25;;
68247;SDS011;55064;49.636;12.164;2022-11-24T01:07:38;35.60;;;11.97;;
68247;SDS011;55064;49.636;12.164;2022-11-24T01:10:04;35.60;;;11.67;;
68247;SDS011;55064;49.636;12.164;2022-11-24T01:12:31;36.80;;;12.63;;
68247;SDS011;55064;49.636;12.164;2022-11-24T01:14:57;37.30;;;12.00;;
68247;SDS011;55064;49.636;12.164;2022-11-24T01:17:25;34.47;;;12.87;;
68247;SDS011;55064;49.636;12.164;2022-11-24T01:19:53;34.92;;;12.00;;
68247;SDS011;55064;49.636;12.164;2022-11-24T01:22:21;30.95;;;10.98;;
68247;SDS011;55064;49.636;12.164;2022-11-24T01:24:46;34.37;;;10.87;;
68247;SDS011;55064;49.636;12.164;2022-11-24T01:27:14;32.13;;;10.73;;
68247;SDS011;55064;49.636;12.164;2022-11-24T01:29:42;28.93;;;10.83;;
68247;SDS011;55064;49.636;12.164;2022-11-24T01:32:09;34.42;;;12.18;;
68247;SDS011;55064;49.636;12.164;2022-11-24T01:34:37;32.00;;;11.40;;
68247;SDS011;55064;49.636;12.164;2022-11-24T01:37:05;29.15;;;11.45;;
68247;SDS011;55064;49.636;12.164;2022-11-24T01:39:31;28.33;;;10.63;;
68247;SDS011;55064;49.636;12.164;2022-11-24T01:41:59;29.83;;;11.90;;
68247;SDS011;55064;49.636;12.164;2022-11-24T01:44:28;26.75;;;10.50;;
68247;SDS011;55064;49.636;12.164;2022-11-24T01:46:57;28.48;;;10.00;;
68247;SDS011;55064;49.636;12.164;2022-11-24T01:52:24;29.33;;;10.20;;
68247;SDS011;55064;49.636;12.164;2022-11-24T01:54:56;26.00;;;9.75;;
68247;SDS011;55064;49.636;12.164;2022-11-24T01:57:28;27.30;;;10.27;;
68247;SDS011;55064;49.636;12.164;2022-11-24T02:00:04;25.48;;;9.15;;
68247;SDS011;55064;49.636;12.164;2022-11-24T02:02:31;24.75;;;9.57;;
68247;SDS011;55064;49.636;12.164;2022-11-24T02:04:59;26.60;;;10.00;;
68247;SDS011;55064;49.636;12.164;2022-11-24T02:07:30;28.02;;;9.60;;
68247;SDS011;55064;49.636;12.164;2022-11-24T02:10:03;28.20;;;10.43;;
68247;SDS011;55064;49.636;12.164;2022-11-24T02:12:37;26.70;;;10.23;;
68247;SDS011;55064;49.636;12.164;2022-11-24T02:15:04;24.25;;;9.00;;
68247;SDS011;55064;49.636;12.164;2022-11-24T02:17:36;25.27;;;9.48;;
68247;SDS011;55064;49.636;12.164;2022-11-24T02:20:02;25.13;;;8.80;;
68247;SDS011;55064;49.636;12.164;2022-11-24T02:25:15;20.63;;;8.32;;
68247;SDS011;55064;49.636;12.164;2022-11-24T02:28:07;22.25;;;8.55;;
68247;SDS011;55064;49.636;12.164;2022-11-24T02:30:37;24.33;;;9.40;;
68247;SDS011;55064;49.636;12.164;2022-11-24T02:33:04;22.10;;;8.40;;
68247;SDS011;55064;49.636;12.164;2022-11-24T02:35:38;23.70;;;8.90;;
68247;SDS011;55064;49.636;12.164;2022-11-24T02:38:09;18.63;;;8.00;;
68247;SDS011;55064;49.636;12.164;2022-11-24T02:40:36;23.73;;;8.27;;
68247;SDS011;55064;49.636;12.164;2022-11-24T02:43:08;25.70;;;8.77;;
68247;SDS011;55064;49.636;12.164;2022-11-24T02:45:37;21.77;;;8.13;;
68247;SDS011;55064;49.636;12.164;2022-11-24T02:48:02;24.50;;;8.50;;
68247;SDS011;55064;49.636;12.164;2022-11-24T02:50:27;23.97;;;7.97;;
68247;SDS011;55064;49.636;12.164;2022-11-24T02:52:55;23.98;;;8.38;;
68247;SDS011;55064;49.636;12.164;2022-11-24T02:55:21;23.53;;;8.30;;
68247;SDS011;55064;49.636;12.164;2022-11-24T02:57:47;21.95;;;8.02;;
68247;SDS011;55064;49.636;12.164;2022-11-24T03:00:14;22.33;;;8.07;;
68247;SDS011;55064;49.636;12.164;2022-11-24T03:02:43;20.63;;;8.00;;
68247;SDS011;55064;49.636;12.164;2022-11-24T03:05:10;21.05;;;8.20;;
68247;SDS011;55064;49.636;12.164;2022-11-24T03:07:36;20.92;;;7.32;;
68247;SDS011;55064;49.636;12.164;2022-11-24T03:10:04;22.50;;;7.70;;
68247;SDS011;55064;49.636;12.164;2022-11-24T03:12:30;21.13;;;7.53;;
68247;SDS011;55064;49.636;12.164;2022-11-24T03:15:00;19.30;;;7.55;;
68247;SDS011;55064;49.636;12.164;2022-11-24T03:17:27;18.92;;;7.28;;
68247;SDS011;55064;49.636;12.164;2022-11-24T03:19:52;24.23;;;7.67;;
68247;SDS011;55064;49.636;12.164;2022-11-24T03:22:17;18.80;;;7.30;;
68247;SDS011;55064;49.636;12.164;2022-11-24T03:24:45;18.75;;;6.78;;
68247;SDS011;55064;49.636;12.164;2022-11-24T03:27:11;19.00;;;6.83;;
68247;SDS011;55064;49.636;12.164;2022-11-24T03:29:36;16.20;;;6.43;;
68247;SDS011;55064;49.636;12.164;2022-11-24T03:32:06;16.70;;;6.90;;
68247;SDS011;55064;49.636;12.164;2022-11-24T03:34:32;17.42;;;6.18;;
68247;SDS011;55064;49.636;12.164;2022-11-24T03:36:57;16.73;;;6.10;;
68247;SDS011;55064;49.636;12.164;2022-11-24T03:39:25;17.65;;;6.22;;
68247;SDS011;55064;49.636;12.164;2022-11-24T03:41:52;16.98;;;5.72;;
68247;SDS011;55064;49.636;12.164;2022-11-24T03:44:18;19.97;;;6.43;;
68247;SDS011;55064;49.636;12.164;2022-11-24T03:46:44;15.23;;;5.97;;
68247;SDS011;55064;49.636;12.164;2022-11-24T03:49:09;16.58;;;6.20;;
68247;SDS011;55064;49.636;12.164;2022-11-24T03:51:35;15.50;;;5.67;;
68247;SDS011;55064;49.636;12.164;2022-11-24T03:54:00;15.18;;;5.35;;
68247;SDS011;55064;49.636;12.164;2022-11-24T03:56:28;15.13;;;5.80;;
68247;SDS011;55064;49.636;12.164;2022-11-24T03:59:01;15.88;;;5.57;;
68247;SDS011;55064;49.636;12.164;2022-11-24T04:01:27;13.87;;;5.33;;
68247;SDS011;55064;49.636;12.164;2022-11-24T04:03:55;14.88;;;5.60;;
68247;SDS011;55064;49.636;12.164;2022-11-24T04:06:20;12.53;;;4.07;;
68247;SDS011;55064;49.636;12.164;2022-11-24T04:08:50;12.35;;;4.38;;
68247;SDS011;55064;49.636;12.164;2022-11-24T04:11:20;13.32;;;4.40;;
68247;SDS011;55064;49.636;12.164;2022-11-24T04:14:04;13.43;;;4.97;;
68247;SDS011;55064;49.636;12.164;2022-11-24T04:16:29;16.93;;;4.70;;
68247;SDS011;55064;49.636;12.164;2022-11-24T04:18:57;15.80;;;4.82;;
68247;SDS011;55064;49.636;12.164;2022-11-24T04:21:22;16.37;;;4.97;;
68247;SDS011;55064;49.636;12.164;2022-11-24T04:23:50;17.02;;;4.88;;
68247;SDS011;55064;49.636;12.164;2022-11-24T04:26:15;13.63;;;4.73;;
68247;SDS011;55064;49.636;12.164;2022-11-24T04:28:43;16.13;;;4.53;;
68247;SDS011;55064;49.636;12.164;2022-11-24T04:31:08;16.30;;;4.18;;
68247;SDS011;55064;49.636;12.164;2022-11-24T04:33:36;14.97;;;4.17;;
68247;SDS011;55064;49.636;12.164;2022-11-24T04:36:04;11.68;;;3.80;;
68247;SDS011;55064;49.636;12.164;2022-11-24T04:38:29;13.68;;;4.05;;
68247;SDS011;55064;49.636;12.164;2022-11-24T04:41:01;13.88;;;4.00;;
68247;SDS011;55064;49.636;12.164;2022-11-24T04:43:29;13.93;;;3.90;;
68247;SDS011;55064;49.636;12.164;2022-11-24T04:45:58;11.50;;;4.00;;
68247;SDS011;55064;49.636;12.164;2022-11-24T04:48:27;12.63;;;4.05;;
68247;SDS011;55064;49.636;12.164;2022-11-24T04:50:54;17.48;;;5.00;;
68247;SDS011;55064;49.636;12.164;2022-11-24T04:53:21;17.65;;;4.70;;
68247;SDS011;55064;49.636;12.164;2022-11-24T04:55:47;16.20;;;3.97;;
68247;SDS011;55064;49.636;12.164;2022-11-24T04:58:15;15.88;;;3.60;;
68247;SDS011;55064;49.636;12.164;2022-11-24T05:00:43;13.67;;;3.60;;
68247;SDS011;55064;49.636;12.164;2022-11-24T05:03:13;10.40;;;3.90;;
68247;SDS011;55064;49.636;12.164;2022-11-24T05:05:41;17.27;;;3.93;;
68247;SDS011;55064;49.636;12.164;2022-11-24T05:08:07;21.40;;;3.95;;
68247;SDS011;55064;49.636;12.164;2022-11-24T05:10:35;15.77;;;3.73;;
68247;SDS011;55064;49.636;12.164;2022-11-24T05:13:04;17.88;;;3.72;;
68247;SDS011;55064;49.636;12.164;2022-11-24T05:15:33;16.15;;;3.58;;
68247;SDS011;55064;49.636;12.164;2022-11-24T05:18:03;16.73;;;3.90;;
68247;SDS011;55064;49.636;12.164;2022-11-24T05:20:39;11.80;;;3.72;;
68247;SDS011;55064;49.636;12.164;2022-11-24T05:23:10;17.38;;;4.28;;
68247;SDS011;55064;49.636;12.164;2022-11-24T05:25:39;17.30;;;5.70;;
68247;SDS011;55064;49.636;12.164;2022-11-24T05:28:05;16.70;;;4.60;;
68247;SDS011;55064;49.636;12.164;2022-11-24T05:30:38;16.10;;;5.03;;
68247;SDS011;55064;49.636;12.164;2022-11-24T05:33:06;15.77;;;5.22;;
68247;SDS011;55064;49.636;12.164;2022-11-24T05:35:39;16.10;;;6.15;;
68247;SDS011;55064;49.636;12.164;2022-11-24T05:38:05;18.70;;;5.93;;
68247;SDS011;55064;49.636;12.164;2022-11-24T05:40:30;17.60;;;6.07;;
68247;SDS011;55064;49.636;12.164;2022-11-24T05:42:56;17.80;;;6.13;;
68247;SDS011;55064;49.636;12.164;2022-11-24T05:45:25;23.55;;;9.05;;
68247;SDS011;55064;49.636;12.164;2022-11-24T05:47:53;22.07;;;8.57;;
68247;SDS011;55064;49.636;12.164;2022-11-24T05:50:19;25.25;;;10.20;;
68247;SDS011;55064;49.636;12.164;2022-11-24T05:52:47;19.23;;;7.30;;
68247;SDS011;55064;49.636;12.164;2022-11-24T05:55:15;19.60;;;6.10;;
68247;SDS011;55064;49.636;12.164;2022-11-24T05:57:43;20.75;;;6.88;;
68247;SDS011;55064;49.636;12.164;2022-11-24T06:00:09;21.67;;;6.53;;
68247;SDS011;55064;49.636;12.164;2022-11-24T06:02:36;18.10;;;6.20;;
68247;SDS011;55064;49.636;12.164;2022-11-24T06:05:02;19.15;;;6.22;;
68247;SDS011;55064;49.636;12.164;2022-11-24T06:07:29;15.73;;;5.90;;
68247;SDS011;55064;49.636;12.164;2022-11-24T06:09:58;20.85;;;6.28;;
68247;SDS011;55064;49.636;12.164;2022-11-24T06:12:25;25.03;;;7.83;;
68247;SDS011;55064;49.636;12.164;2022-11-24T06:14:51;21.08;;;7.75;;
68247;SDS011;55064;49.636;12.164;2022-11-24T06:17:16;20.03;;;6.80;;
68247;SDS011;55064;49.636;12.164;2022-11-24T06:19:42;15.07;;;5.50;;
68247;SDS011;55064;49.636;12.164;2022-11-24T06:22:14;16.05;;;5.90;;
68247;SDS011;55064;49.636;12.164;2022-11-24T06:24:39;13.33;;;5.23;;
68247;SDS011;55064;49.636;12.164;2022-11-24T06:27:05;14.20;;;4.87;;
68247;SDS011;55064;49.636;12.164;2022-11-24T06:29:30;12.63;;;4.32;;
68247;SDS011;55064;49.636;12.164;2022-11-24T06:31:56;18.67;;;4.60;;
68247;SDS011;55064;49.636;12.164;2022-11-24T06:34:21;15.43;;;4.70;;
68247;SDS011;55064;49.636;12.164;2022-11-24T06:36:48;15.20;;;4.10;;
68247;SDS011;55064;49.636;12.164;2022-11-24T06:39:15;15.07;;;4.22;;
68247;SDS011;55064;49.636;12.164;2022-11-24T06:41:41;15.77;;;4.25;;
68247;SDS011;55064;49.636;12.164;2022-11-24T06:44:06;15.60;;;4.50;;
68247;SDS011;55064;49.636;12.164;2022-11-24T06:46:34;14.98;;;4.88;;
68247;SDS011;55064;49.636;12.164;2022-11-24T06:48:59;11.73;;;4.60;;
68247;SDS011;55064;49.636;12.164;2022-11-24T06:51:26;17.60;;;6.53;;
68247;SDS011;55064;49.636;12.164;2022-11-24T06:53:53;19.48;;;6.03;;
68247;SDS011;55064;49.636;12.164;2022-11-24T06:56:19;16.87;;;5.67;;
68247;SDS011;55064;49.636;12.164;2022-11-24T06:58:48;18.38;;;5.00;;
68247;SDS011;55064;49.636;12.164;2022-11-24T07:01:16;24.52;;;5.10;;
68247;SDS011;55064;49.636;12.164;2022-11-24T07:03:43;14.77;;;4.93;;
68247;SDS011;55064;49.636;12.164;2022-11-24T07:06:09;17.93;;;4.67;;
68247;SDS011;55064;49.636;12.164;2022-11-24T07:08:38;13.15;;;4.35;;
68247;SDS011;55064;49.636;12.164;2022-11-24T07:11:08;17.45;;;4.40;;
68247;SDS011;55064;49.636;12.164;2022-11-24T07:13:36;16.73;;;4.75;;
68247;SDS011;55064;49.636;12.164;2022-11-24T07:18:47;17.70;;;5.18;;
68247;SDS011;55064;49.636;12.164;2022-11-24T07:21:17;19.05;;;4.82;;
68247;SDS011;55064;49.636;12.164;2022-11-24T07:23:46;13.38;;;4.90;;
68247;SDS011;55064;49.636;12.164;2022-11-24T07:26:12;24.52;;;5.57;;
68247;SDS011;55064;49.636;12.164;2022-11-24T07:28:38;12.83;;;4.40;;
68247;SDS011;55064;49.636;12.164;2022-11-24T07:31:07;16.03;;;4.93;;
68247;SDS011;55064;49.636;12.164;2022-11-24T07:33:34;18.83;;;4.55;;
68247;SDS011;55064;49.636;12.164;2022-11-24T07:36:00;16.50;;;4.83;;
68247;SDS011;55064;49.636;12.164;2022-11-24T07:38:27;16.63;;;4.75;;
68247;SDS011;55064;49.636;12.164;2022-11-24T07:40:53;20.40;;;5.10;;
68247;SDS011;55064;49.636;12.164;2022-11-24T07:43:18;17.67;;;5.47;;
68247;SDS011;55064;49.636;12.164;2022-11-24T07:45:50;17.07;;;5.87;;
68247;SDS011;55064;49.636;12.164;2022-11-24T07:48:18;16.00;;;6.10;;
68247;SDS011;55064;49.636;12.164;2022-11-24T07:50:45;16.30;;;5.90;;
68247;SDS011;55064;49.636;12.164;2022-11-24T07:53:11;15.67;;;5.07;;
68247;SDS011;55064;49.636;12.164;2022-11-24T07:55:36;16.80;;;5.00;;
68247;SDS011;55064;49.636;12.164;2022-11-24T07:58:01;15.97;;;4.23;;
68247;SDS011;55064;49.636;12.164;2022-11-24T08:00:27;17.15;;;4.75;;
68247;SDS011;55064;49.636;12.164;2022-11-24T08:02:52;19.53;;;4.73;;
68247;SDS011;55064;49.636;12.164;2022-11-24T08:05:18;18.38;;;4.18;;
68247;SDS011;55064;49.636;12.164;2022-11-24T08:07:43;14.77;;;4.00;;
68247;SDS011;55064;49.636;12.164;2022-11-24T08:10:09;14.40;;;3.90;;
68247;SDS011;55064;49.636;12.164;2022-11-24T08:12:34;22.90;;;6.60;;
68247;SDS011;55064;49.636;12.164;2022-11-24T08:15:00;19.53;;;5.23;;
68247;SDS011;55064;49.636;12.164;2022-11-24T08:17:26;15.10;;;3.92;;
68247;SDS011;55064;49.636;12.164;2022-11-24T08:19:52;12.98;;;4.20;;
68247;SDS011;55064;49.636;12.164;2022-11-24T08:22:17;13.07;;;4.27;;
68247;SDS011;55064;49.636;12.164;2022-11-24T08:24:43;15.80;;;4.20;;
68247;SDS011;55064;49.636;12.164;2022-11-24T08:27:12;14.55;;;4.07;;
68247;SDS011;55064;49.636;12.164;2022-11-24T08:29:38;13.55;;;4.15;;
68247;SDS011;55064;49.636;12.164;2022-11-24T08:32:04;12.13;;;3.50;;
68247;SDS011;55064;49.636;12.164;2022-11-24T08:34:29;11.73;;;3.58;;
68247;SDS011;55064;49.636;12.164;2022-11-24T08:36:56;17.80;;;3.17;;
68247;SDS011;55064;49.636;12.164;2022-11-24T08:39:21;10.48;;;3.30;;
68247;SDS011;55064;49.636;12.164;2022-11-24T08:41:49;13.50;;;3.03;;
68247;SDS011;55064;49.636;12.164;2022-11-24T08:44:14;14.30;;;3.08;;
68247;SDS011;55064;49.636;12.164;2022-11-24T08:46:42;9.23;;;2.57;;
68247;SDS011;55064;49.636;12.164;2022-11-24T08:49:08;15.00;;;2.67;;
68247;SDS011;55064;49.636;12.164;2022-11-24T08:51:33;17.80;;;3.47;;
68247;SDS011;55064;49.636;12.164;2022-11-24T08:54:01;17.00;;;3.13;;
68247;SDS011;55064;49.636;12.164;2022-11-24T08:56:28;11.15;;;2.95;;
68247;SDS011;55064;49.636;12.164;2022-11-24T08:58:54;12.00;;;3.10;;
68247;SDS011;55064;49.636;12.164;2022-11-24T09:01:20;17.07;;;3.93;;
68247;SDS011;55064;49.636;12.164;2022-11-24T09:03:46;13.77;;;3.63;;
68247;SDS011;55064;49.636;12.164;2022-11-24T09:06:13;15.00;;;3.60;;
68247;SDS011;55064;49.636;12.164;2022-11-24T09:08:40;14.13;;;3.95;;
68247;SDS011;55064;49.636;12.164;2022-11-24T09:11:06;17.07;;;4.60;;
68247;SDS011;55064;49.636;12.164;2022-11-24T09:13:34;25.00;;;4.90;;
68247;SDS011;55064;49.636;12.164;2022-11-24T09:16:04;15.27;;;3.33;;
68247;SDS011;55064;49.636;12.164;2022-11-24T09:18:32;12.10;;;3.30;;
68247;SDS011;55064;49.636;12.164;2022-11-24T09:23:53;12.82;;;2.72;;
68247;SDS011;55064;49.636;12.164;2022-11-24T09:26:21;12.57;;;2.45;;
68247;SDS011;55064;49.636;12.164;2022-11-24T09:28:50;18.45;;;4.45;;
68247;SDS011;55064;49.636;12.164;2022-11-24T09:31:18;17.23;;;4.13;;
68247;SDS011;55064;49.636;12.164;2022-11-24T09:33:44;17.02;;;4.05;;
68247;SDS011;55064;49.636;12.164;2022-11-24T09:36:10;13.50;;;2.47;;
68247;SDS011;55064;49.636;12.164;2022-11-24T09:38:39;13.27;;;2.35;;
68247;SDS011;55064;49.636;12.164;2022-11-24T09:41:53;14.57;;;3.90;;
68247;SDS011;55064;49.636;12.164;2022-11-24T09:47:11;11.18;;;3.30;;
68247;SDS011;55064;49.636;12.164;2022-11-24T09:55:04;14.27;;;3.25;;
68247;SDS011;55064;49.636;12.164;2022-11-24T09:57:46;15.30;;;3.10;;
68247;SDS011;55064;49.636;12.164;2022-11-24T10:00:18;13.18;;;2.63;;
68247;SDS011;55064;49.636;12.164;2022-11-24T10:02:44;15.47;;;2.50;;
68247;SDS011;55064;49.636;12.164;2022-11-24T10:05:13;16.83;;;4.57;;
68247;SDS011;55064;49.636;12.164;2022-11-24T10:07:41;17.43;;;5.03;;
68247;SDS011;55064;49.636;12.164;2022-11-24T10:10:16;15.43;;;3.72;;
68247;SDS011;55064;49.636;12.164;2022-11-24T10:28:57;10.05;;;2.33;;
68247;SDS011;55064;49.636;12.164;2022-11-24T10:31:33;11.20;;;2.20;;
68247;SDS011;55064;49.636;12.164;2022-11-24T10:34:08;8.45;;;2.05;;
68247;SDS011;55064;49.636;12.164;2022-11-24T10:36:52;13.05;;;2.75;;
68247;SDS011;55064;49.636;12.164;2022-11-24T10:42:25;14.40;;;3.05;;
68247;SDS011;55064;49.636;12.164;2022-11-24T10:45:07;10.93;;;1.70;;
68247;SDS011;55064;49.636;12.164;2022-11-24T10:47:38;10.98;;;2.10;;
68247;SDS011;55064;49.636;12.164;2022-11-24T10:52:40;9.00;;;1.60;;
68247;SDS011;55064;49.636;12.164;2022-11-24T10:55:08;7.60;;;1.52;;
68247;SDS011;55064;49.636;12.164;2022-11-24T10:57:35;8.02;;;2.85;;
68247;SDS011;55064;49.636;12.164;2022-11-24T11:00:06;9.55;;;2.80;;
68247;SDS011;55064;49.636;12.164;2022-11-24T11:02:48;10.10;;;2.10;;
68247;SDS011;55064;49.636;12.164;2022-11-24T11:05:25;12.27;;;2.63;;
68247;SDS011;55064;49.636;12.164;2022-11-24T11:10:44;13.00;;;2.80;;
68247;SDS011;55064;49.636;12.164;2022-11-24T11:13:21;11.35;;;2.20;;
68247;SDS011;55064;49.636;12.164;2022-11-24T11:15:48;12.87;;;3.30;;
68247;SDS011;55064;49.636;12.164;2022-11-24T11:18:15;14.10;;;2.92;;
68247;SDS011;55064;49.636;12.164;2022-11-24T11:20:48;12.13;;;2.57;;
68247;SDS011;55064;49.636;12.164;2022-11-24T11:23:20;12.30;;;2.10;;
68247;SDS011;55064;49.636;12.164;2022-11-24T11:25:50;14.40;;;3.30;;
68247;SDS011;55064;49.636;12.164;2022-11-24T11:31:24;12.57;;;3.67;;
68247;SDS011;55064;49.636;12.164;2022-11-24T11:33:58;10.07;;;2.97;;
68247;SDS011;55064;49.636;12.164;2022-11-24T11:36:24;11.23;;;3.10;;
68247;SDS011;55064;49.636;12.164;2022-11-24T11:38:50;15.45;;;2.92;;
68247;SDS011;55064;49.636;12.164;2022-11-24T11:41:23;18.23;;;4.38;;
68247;SDS011;55064;49.636;12.164;2022-11-24T11:43:56;15.45;;;5.13;;
68247;SDS011;55064;49.636;12.164;2022-11-24T11:46:33;12.87;;;3.93;;
68247;SDS011;55064;49.636;12.164;2022-11-24T11:48:59;12.18;;;3.72;;
68247;SDS011;55064;49.636;12.164;2022-11-24T11:56:47;10.20;;;2.63;;
68247;SDS011;55064;49.636;12.164;2022-11-24T12:01:55;6.85;;;2.05;;
68247;SDS011;55064;49.636;12.164;2022-11-24T12:07:04;5.17;;;1.20;;
68247;SDS011;55064;49.636;12.164;2022-11-24T12:18:46;5.07;;;1.50;;
68247;SDS011;55064;49.636;12.164;2022-11-24T12:21:28;4.90;;;1.20;;
68247;SDS011;55064;49.636;12.164;2022-11-24T12:26:37;5.07;;;0.85;;
68247;SDS011;55064;49.636;12.164;2022-11-24T12:45:15;8.00;;;2.35;;
68247;SDS011;55064;49.636;12.164;2022-11-24T12:50:38;7.40;;;2.05;;
68247;SDS011;55064;49.636;12.164;2022-11-24T12:55:38;6.47;;;2.03;;
68247;SDS011;55064;49.636;12.164;2022-11-24T13:06:23;4.93;;;1.08;;
68247;SDS011;55064;49.636;12.164;2022-11-24T13:08:56;3.90;;;1.10;;
68247;SDS011;55064;49.636;12.164;2022-11-24T13:16:24;4.63;;;1.30;;
68247;SDS011;55064;49.636;12.164;2022-11-24T13:18:54;6.82;;;1.60;;
68247;SDS011;55064;49.636;12.164;2022-11-24T13:21:32;6.17;;;1.50;;
68247;SDS011;55064;49.636;12.164;2022-11-24T13:24:00;5.20;;;1.48;;
68247;SDS011;55064;49.636;12.164;2022-11-24T13:26:29;6.28;;;1.50;;
68247;SDS011;55064;49.636;12.164;2022-11-24T13:42:26;6.75;;;1.70;;
68247;SDS011;55064;49.636;12.164;2022-11-24T13:44:56;10.15;;;2.42;;
68247;SDS011;55064;49.636;12.164;2022-11-24T13:47:37;7.20;;;1.85;;
68247;SDS011;55064;49.636;12.164;2022-11-24T13:57:47;8.80;;;2.50;;
68247;SDS011;55064;49.636;12.164;2022-11-24T14:00:22;10.88;;;3.35;;
68247;SDS011;55064;49.636;12.164;2022-11-24T14:02:53;7.50;;;2.10;;
68247;SDS011;55064;49.636;12.164;2022-11-24T14:05:23;10.10;;;3.72;;
68247;SDS011;55064;49.636;12.164;2022-11-24T14:07:57;8.00;;;2.70;;
68247;SDS011;55064;49.636;12.164;2022-11-24T14:10:29;13.53;;;3.73;;
68247;SDS011;55064;49.636;12.164;2022-11-24T14:15:57;7.30;;;1.60;;
68247;SDS011;55064;49.636;12.164;2022-11-24T14:18:46;8.98;;;1.73;;
68247;SDS011;55064;49.636;12.164;2022-11-24T14:21:34;7.93;;;1.92;;
68247;SDS011;55064;49.636;12.164;2022-11-24T14:24:09;6.47;;;2.00;;
68247;SDS011;55064;49.636;12.164;2022-11-24T14:26:47;6.15;;;1.80;;
68247;SDS011;55064;49.636;12.164;2022-11-24T14:29:17;7.35;;;1.75;;
68247;SDS011;55064;49.636;12.164;2022-11-24T14:31:53;6.93;;;2.13;;
68247;SDS011;55064;49.636;12.164;2022-11-24T14:34:26;9.80;;;2.20;;
68247;SDS011;55064;49.636;12.164;2022-11-24T14:36:53;7.77;;;2.03;;
68247;SDS011;55064;49.636;12.164;2022-11-24T14:39:24;12.57;;;2.90;;
68247;SDS011;55064;49.636;12.164;2022-11-24T14:44:24;8.20;;;1.90;;
68247;SDS011;55064;49.636;12.164;2022-11-24T14:47:06;10.88;;;2.40;;
68247;SDS011;55064;49.636;12.164;2022-11-24T14:49:40;8.63;;;2.40;;
68247;SDS011;55064;49.636;12.164;2022-11-24T14:52:08;8.10;;;2.72;;
68247;SDS011;55064;49.636;12.164;2022-11-24T14:54:48;10.48;;;3.33;;
68247;SDS011;55064;49.636;12.164;2022-11-24T15:02:41;8.93;;;2.67;;
68247;SDS011;55064;49.636;12.164;2022-11-24T15:05:13;10.52;;;2.40;;
68247;SDS011;55064;49.636;12.164;2022-11-24T15:07:47;8.38;;;2.47;;
68247;SDS011;55064;49.636;12.164;2022-11-24T15:10:31;14.48;;;3.63;;
68247;SDS011;55064;49.636;12.164;2022-11-24T15:13:00;9.57;;;2.50;;
68247;SDS011;55064;49.636;12.164;2022-11-24T15:15:30;7.97;;;2.10;;
68247;SDS011;55064;49.636;12.164;2022-11-24T15:17:59;10.75;;;2.55;;
68247;SDS011;55064;49.636;12.164;2022-11-24T15:20:32;12.55;;;3.35;;
68247;SDS011;55064;49.636;12.164;2022-11-24T15:25:41;16.08;;;4.18;;
68247;SDS011;55064;49.636;12.164;2022-11-24T15:28:06;13.73;;;3.97;;
68247;SDS011;55064;49.636;12.164;2022-11-24T15:30:33;11.35;;;3.35;;
68247;SDS011;55064;49.636;12.164;2022-11-24T15:33:00;11.85;;;3.20;;
68247;SDS011;55064;49.636;12.164;2022-11-24T15:35:30;10.55;;;3.80;;
68247;SDS011;55064;49.636;12.164;2022-11-24T15:37:56;10.00;;;3.35;;
68247;SDS011;55064;49.636;12.164;2022-11-24T15:40:22;10.60;;;3.50;;
68247;SDS011;55064;49.636;12.164;2022-11-24T15:42:52;11.80;;;3.72;;
68247;SDS011;55064;49.636;12.164;2022-11-24T15:45:21;12.85;;;3.97;;
68247;SDS011;55064;49.636;12.164;2022-11-24T15:47:48;8.00;;;2.42;;
68247;SDS011;55064;49.636;12.164;2022-11-24T15:50:13;8.20;;;2.80;;
68247;SDS011;55064;49.636;12.164;2022-11-24T15:52:39;12.63;;;2.80;;
68247;SDS011;55064;49.636;12.164;2022-11-24T15:55:05;8.57;;;2.60;;
68247;SDS011;55064;49.636;12.164;2022-11-24T15:57:36;9.98;;;3.55;;
68247;SDS011;55064;49.636;12.164;2022-11-24T16:00:01;12.07;;;4.40;;
68247;SDS011;55064;49.636;12.164;2022-11-24T16:02:27;11.32;;;3.60;;
68247;SDS011;55064;49.636;12.164;2022-11-24T16:04:52;10.13;;;2.70;;
68247;SDS011;55064;49.636;12.164;2022-11-24T16:07:18;8.40;;;2.60;;
68247;SDS011;55064;49.636;12.164;2022-11-24T16:09:43;10.17;;;2.70;;
68247;SDS011;55064;49.636;12.164;2022-11-24T16:12:08;8.97;;;2.37;;
68247;SDS011;55064;49.636;12.164;2022-11-24T16:14:46;7.82;;;2.10;;
68247;SDS011;55064;49.636;12.164;2022-11-24T16:17:18;9.17;;;2.40;;
68247;SDS011;55064;49.636;12.164;2022-11-24T16:20:10;10.23;;;3.40;;
68247;SDS011;55064;49.636;12.164;2022-11-24T16:22:53;6.18;;;2.35;;
68247;SDS011;55064;49.636;12.164;2022-11-24T16:25:19;6.38;;;1.90;;
68247;SDS011;55064;49.636;12.164;2022-11-24T16:27:54;7.88;;;1.90;;
68247;SDS011;55064;49.636;12.164;2022-11-24T16:30:24;6.97;;;2.37;;
68247;SDS011;55064;49.636;12.164;2022-11-24T16:32:55;7.75;;;2.40;;
68247;SDS011;55064;49.636;12.164;2022-11-24T16:35:24;8.48;;;3.40;;
68247;SDS011;55064;49.636;12.164;2022-11-24T16:37:50;5.75;;;1.90;;
68247;SDS011;55064;49.636;12.164;2022-11-24T16:40:15;5.53;;;1.80;;
68247;SDS011;55064;49.636;12.164;2022-11-24T16:42:42;8.10;;;1.90;;
68247;SDS011;55064;49.636;12.164;2022-11-24T16:45:10;9.05;;;2.40;;
68247;SDS011;55064;49.636;12.164;2022-11-24T16:47:40;9.57;;;2.57;;
68247;SDS011;55064;49.636;12.164;2022-11-24T16:50:08;6.93;;;2.25;;
68247;SDS011;55064;49.636;12.164;2022-11-24T16:52:36;5.85;;;1.65;;